Nearby METAR Reports

 

NZWN - Wellington Intl, New Zealand
Distance from station: E 68km
Updated: 18/01/2019 21:30
Few Clouds
Few Clouds
 Wind from SSW
Wind: SSW 7 km/h
Temperature: 18°C
Dew Point: 16°C
Humidity: 88%
Barometer: 1012 hPa
Clouds: Few Clouds
Visibility: 10 km
Cloud details: Few Clouds 91 m
2019/01/18 08:30 NZWN 180830Z AUTO 21004KT 9999 FEW003 18/16 Q1012 NOSIG
NZCH - Christchurch Int, New Zealand
Distance from station: SSW 269km
Updated: 18/01/2019 21:30
Overcast
Overcast
 Wind from NE
Wind: NE 9 km/h
Temperature: 18°C
Dew Point: 16°C
Humidity: 88%
Barometer: 1012 hPa
Clouds: Overcast
Visibility: 10 km
Cloud details: Mostly cloudy 488 m
Overcast 732 m
2019/01/18 08:30 NZCH 180830Z AUTO 04005KT 9999 BKN016/// OVC024/// 18/16 Q1012 BECMG BKN012
 
NZAA - Auckland Intl Ar, New Zealand
Distance from station: N 480km
Updated: 18/01/2019 21:30
Mostly cloudy
Mostly cloudy
 Wind from WSW
Wind: WSW 20 km/h
Temperature: 21°C
Dew Point: 19°C
Humidity: 88%
Barometer: 1013 hPa
Clouds: Mostly cloudy
Visibility: 10 km
Cloud details: Few Clouds 335 m
Mostly cloudy 762 m
Mostly cloudy 945 m
2019/01/18 08:30 NZAA 180830Z AUTO 24011KT 9999 FEW011/// BKN025/// BKN031/// 21/19 Q1013 TEMPO BKN012